createdAt,value
2018-05-11T00:01:01.188Z,52.70
2018-05-11T00:06:03.668Z,53.20
2018-05-11T00:11:06.151Z,52.70
2018-05-11T00:16:08.644Z,52.80
2018-05-11T00:21:11.127Z,52.70
2018-05-11T00:26:13.600Z,52.60
2018-05-11T00:31:16.095Z,52.50
2018-05-11T00:36:18.592Z,52.60
2018-05-11T00:41:21.100Z,52.60
2018-05-11T00:46:23.591Z,52.70
2018-05-11T00:51:26.077Z,52.80
2018-05-11T00:56:28.585Z,52.50
2018-05-11T01:01:31.089Z,52.40
2018-05-11T01:06:33.591Z,52.60
2018-05-11T01:11:36.069Z,52.70
2018-05-11T01:16:38.557Z,52.40
2018-05-11T01:21:41.044Z,52.40
2018-05-11T01:26:43.555Z,52.60
2018-05-11T01:31:46.041Z,52.50
2018-05-11T01:36:49.296Z,52.40
2018-05-11T01:41:51.796Z,52.60
2018-05-11T01:46:54.283Z,52.40
2018-05-11T01:51:56.788Z,52.50
2018-05-11T01:56:59.277Z,52.40
2018-05-11T02:02:01.757Z,52.50
2018-05-11T02:07:04.244Z,52.50
2018-05-11T02:12:06.727Z,52.60
2018-05-11T02:17:09.208Z,52.50
2018-05-11T02:22:11.708Z,52.40
2018-05-11T02:27:14.187Z,52.60
2018-05-11T02:32:16.682Z,52.50
2018-05-11T02:37:19.183Z,52.70
2018-05-11T02:42:21.684Z,52.70
2018-05-11T02:47:24.169Z,52.60
2018-05-11T02:52:26.669Z,52.70
2018-05-11T02:57:29.148Z,52.50
2018-05-11T03:02:31.646Z,52.70
2018-05-11T03:07:34.146Z,52.50
2018-05-11T03:12:36.632Z,52.80
2018-05-11T03:17:39.114Z,52.60
2018-05-11T03:22:41.608Z,52.80
2018-05-11T03:27:44.110Z,52.80
2018-05-11T03:32:46.605Z,53.00
2018-05-11T03:37:49.174Z,52.80
2018-05-11T03:42:51.575Z,52.80
2018-05-11T03:47:54.064Z,52.70
2018-05-11T03:52:57.304Z,52.80
2018-05-11T03:57:59.795Z,52.80
2018-05-11T04:03:14.269Z,53.00
2018-05-11T04:08:28.638Z,52.90
2018-05-11T04:13:31.133Z,52.90
2018-05-11T04:18:34.389Z,53.10
2018-05-11T04:23:36.881Z,53.50
2018-05-11T04:28:39.355Z,53.10
2018-05-11T04:33:41.828Z,53.10
2018-05-11T04:38:44.325Z,53.00
2018-05-11T04:43:46.817Z,52.80
2018-05-11T04:48:49.291Z,53.80
2018-05-11T04:53:52.538Z,53.40
2018-05-11T04:58:55.025Z,53.60
2018-05-11T05:03:57.520Z,53.20
2018-05-11T05:09:00.005Z,53.30
2018-05-11T05:14:02.504Z,53.30
2018-05-11T05:19:05.009Z,53.20
2018-05-11T05:24:07.507Z,53.50
2018-05-11T05:29:10.012Z,53.40
2018-05-11T05:34:13.266Z,53.40
2018-05-11T05:39:15.845Z,53.40
2018-05-11T05:44:18.252Z,53.20
2018-05-11T05:49:20.740Z,53.20
2018-05-11T05:54:23.236Z,52.80
2018-05-11T05:59:25.717Z,53.40
2018-05-11T06:04:28.217Z,53.50
2018-05-11T06:09:30.702Z,53.40
2018-05-11T06:14:33.204Z,53.40
2018-05-11T06:19:35.687Z,53.50
2018-05-11T06:24:38.171Z,53.40
2018-05-11T06:29:40.659Z,53.40
2018-05-11T06:34:43.151Z,53.40
2018-05-11T06:39:45.644Z,53.40
2018-05-11T06:44:48.140Z,54.30
2018-05-11T06:49:50.631Z,53.20
2018-05-11T06:54:53.121Z,53.50
2018-05-11T06:59:55.600Z,53.50
2018-05-11T07:04:58.097Z,53.50
2018-05-11T07:10:00.798Z,54.10
2018-05-11T07:15:03.312Z,57.20
2018-05-11T07:20:05.812Z,54.30
2018-05-11T07:25:09.071Z,54.10
2018-05-11T07:30:12.320Z,54.60
2018-05-11T07:35:14.801Z,54.20
2018-05-11T07:40:17.302Z,54.30
2018-05-11T07:45:19.799Z,53.70
2018-05-11T07:50:22.295Z,54.10
2018-05-11T07:55:24.791Z,55.10
2018-05-11T08:00:27.291Z,55.50
2018-05-11T08:05:29.785Z,55.30
2018-05-11T08:10:32.285Z,55.20
2018-05-11T08:15:34.788Z,55.10
2018-05-11T08:20:37.273Z,55.20
2018-05-11T08:25:40.544Z,54.70
2018-05-11T08:30:43.059Z,54.90
2018-05-11T08:35:45.617Z,54.30
2018-05-11T08:40:48.056Z,54.50
2018-05-11T08:45:50.535Z,54.00
2018-05-11T08:50:53.040Z,53.90
2018-05-11T08:55:55.578Z,53.90
2018-05-11T09:00:58.024Z,53.50
2018-05-11T09:06:00.602Z,52.80
2018-05-11T09:11:03.009Z,53.10
2018-05-11T09:16:05.501Z,53.20
2018-05-11T09:21:07.997Z,53.10
2018-05-11T09:26:10.492Z,53.20
2018-05-11T09:31:12.977Z,53.00
2018-05-11T09:36:15.473Z,53.00
2018-05-11T09:41:17.976Z,52.60
2018-05-11T09:46:20.687Z,52.80
2018-05-11T09:51:23.209Z,52.50
2018-05-11T09:56:25.712Z,52.10
2018-05-11T10:01:28.195Z,53.60
2018-05-11T10:06:30.707Z,55.00
2018-05-11T10:11:33.976Z,51.80
2018-05-11T10:16:36.463Z,51.90
2018-05-11T10:21:38.956Z,52.10
2018-05-11T10:26:41.452Z,52.40
2018-05-11T10:31:43.936Z,52.30
2018-05-11T10:36:46.432Z,51.30
2018-05-11T10:41:48.960Z,51.40
2018-05-11T10:46:51.517Z,51.80
2018-05-11T10:51:53.972Z,51.90
2018-05-11T10:56:57.214Z,52.10
2018-05-11T11:01:59.708Z,52.20
2018-05-11T11:07:02.193Z,51.00
2018-05-11T11:12:04.681Z,51.10
2018-05-11T11:17:07.217Z,52.00
2018-05-11T11:22:09.713Z,52.10
2018-05-11T11:27:12.245Z,50.80
2018-05-11T11:32:14.772Z,51.30
2018-05-11T11:37:17.263Z,51.40
2018-05-11T11:42:19.765Z,51.70
2018-05-11T11:47:22.243Z,52.40
2018-05-11T11:52:24.749Z,52.40
2018-05-11T11:57:27.252Z,50.60
2018-05-11T12:02:29.744Z,53.00
2018-05-11T12:07:32.220Z,51.60
2018-05-11T12:12:34.712Z,50.60
2018-05-11T12:17:37.223Z,50.20
2018-05-11T12:22:39.712Z,49.90
2018-05-11T12:27:42.192Z,48.60
2018-05-11T12:32:44.690Z,50.20
2018-05-11T12:37:47.201Z,50.00
2018-05-11T12:42:49.707Z,49.30
2018-05-11T12:47:52.193Z,49.00
2018-05-11T12:52:54.725Z,50.60
2018-05-11T12:57:57.184Z,49.80
2018-05-11T13:02:59.685Z,48.40
2018-05-11T13:08:02.943Z,48.70
2018-05-11T13:13:05.439Z,48.80
2018-05-11T13:18:07.944Z,48.50
2018-05-11T13:23:10.429Z,48.30
2018-05-11T13:28:13.700Z,49.40
2018-05-11T13:33:16.960Z,48.90
2018-05-11T13:38:19.456Z,49.00
2018-05-11T13:43:21.947Z,47.50
2018-05-11T13:48:25.269Z,47.80
2018-05-11T13:53:27.697Z,48.00
2018-05-11T13:58:30.959Z,47.90
2018-05-11T14:03:33.444Z,47.60
2018-05-11T14:08:35.940Z,47.00
2018-05-11T14:13:38.441Z,46.70
2018-05-11T14:18:40.941Z,47.10
2018-05-11T14:23:43.422Z,47.90
2018-05-11T14:28:45.931Z,47.60
2018-05-11T14:33:48.469Z,47.90
2018-05-11T14:38:50.979Z,47.40
2018-05-11T14:43:53.550Z,45.10
2018-05-11T14:48:56.805Z,44.70
2018-05-11T14:53:59.305Z,44.60
2018-05-11T14:59:01.801Z,44.10
2018-05-11T15:04:04.302Z,44.50
2018-05-11T15:09:06.813Z,44.80
2018-05-11T15:14:09.357Z,45.70
2018-05-11T15:19:12.040Z,45.30
2018-05-11T15:24:14.521Z,45.30
2018-05-11T15:29:17.018Z,44.40
2018-05-11T15:34:19.496Z,44.80
2018-05-11T15:39:22.761Z,46.00
2018-05-11T15:44:25.253Z,46.20
2018-05-11T15:49:27.748Z,45.50
2018-05-11T15:54:30.254Z,45.50
2018-05-11T15:59:32.742Z,46.20
2018-05-11T16:04:35.244Z,45.60
2018-05-11T16:09:37.725Z,45.80
2018-05-11T16:14:40.208Z,45.60
2018-05-11T16:19:42.709Z,45.60
2018-05-11T16:24:45.200Z,45.60
2018-05-11T16:29:47.760Z,45.70
2018-05-11T16:34:50.312Z,46.00
2018-05-11T16:39:52.805Z,45.80
2018-05-11T16:44:55.297Z,46.10
2018-05-11T16:49:57.788Z,46.40
2018-05-11T16:55:00.272Z,46.00
2018-05-11T17:00:02.791Z,46.20
2018-05-11T17:05:06.040Z,45.80
2018-05-11T17:10:08.536Z,45.80
2018-05-11T17:15:11.026Z,46.50
2018-05-11T17:20:13.509Z,46.40
2018-05-11T17:25:16.004Z,46.60
2018-05-11T17:30:18.490Z,46.50
2018-05-11T17:35:20.987Z,46.50
2018-05-11T17:40:23.479Z,46.50
2018-05-11T17:45:25.980Z,46.60
2018-05-11T17:50:28.456Z,47.00
2018-05-11T17:55:30.926Z,46.60
2018-05-11T18:00:34.204Z,46.90
2018-05-11T18:05:36.706Z,46.90
2018-05-11T18:10:39.184Z,46.80
2018-05-11T18:15:41.692Z,47.00
2018-05-11T18:20:44.218Z,46.70
2018-05-11T18:25:46.724Z,46.80
2018-05-11T18:30:49.227Z,47.10
2018-05-11T18:35:51.714Z,47.00
2018-05-11T18:40:54.214Z,47.10
2018-05-11T18:45:56.723Z,47.20
2018-05-11T18:50:59.215Z,47.00
2018-05-11T18:56:01.706Z,47.30
2018-05-11T19:01:04.695Z,47.40
2018-05-11T19:06:07.200Z,47.40
2018-05-11T19:11:09.696Z,47.20
2018-05-11T19:16:12.200Z,47.30
2018-05-11T19:21:14.692Z,47.40
2018-05-11T19:26:17.191Z,47.30
2018-05-11T19:31:19.726Z,48.10
2018-05-11T19:36:22.181Z,47.50
2018-05-11T19:41:24.665Z,47.60
2018-05-11T19:46:27.162Z,47.90
2018-05-11T19:51:29.662Z,48.00
2018-05-11T19:56:32.148Z,48.20
2018-05-11T20:01:34.644Z,47.90
2018-05-11T20:06:37.130Z,48.10
2018-05-11T20:11:39.615Z,47.90
2018-05-11T20:16:42.118Z,48.10
2018-05-11T20:21:44.603Z,47.90
2018-05-11T20:26:47.095Z,47.90
2018-05-11T20:31:49.583Z,47.80
2018-05-11T20:36:52.078Z,48.00
2018-05-11T20:41:55.396Z,47.70
2018-05-11T20:46:57.886Z,48.00
2018-05-11T20:52:00.383Z,48.00
2018-05-11T20:57:02.896Z,47.90
2018-05-11T21:02:05.376Z,48.00
2018-05-11T21:07:07.868Z,48.00
2018-05-11T21:12:10.357Z,48.00
2018-05-11T21:17:12.860Z,48.10
2018-05-11T21:22:15.341Z,48.00
2018-05-11T21:27:17.891Z,48.30
2018-05-11T21:32:20.327Z,48.30
2018-05-11T21:37:22.817Z,48.40
2018-05-11T21:42:25.300Z,48.20
2018-05-11T21:47:27.801Z,48.40
2018-05-11T21:52:30.284Z,48.60
2018-05-11T21:57:32.776Z,48.60
2018-05-11T22:02:35.256Z,48.70
2018-05-11T22:07:37.759Z,48.70
2018-05-11T22:12:40.260Z,48.90
2018-05-11T22:17:42.746Z,48.80
2018-05-11T22:22:45.257Z,48.90
2018-05-11T22:27:47.736Z,49.00
2018-05-11T22:32:50.223Z,48.80
2018-05-11T22:37:52.716Z,49.00
2018-05-11T22:42:55.211Z,49.20
2018-05-11T22:47:57.688Z,49.20
2018-05-11T22:53:00.196Z,49.20
2018-05-11T22:58:02.701Z,49.10
2018-05-11T23:03:05.187Z,49.20
2018-05-11T23:08:07.679Z,49.20
2018-05-11T23:13:10.179Z,49.40
2018-05-11T23:18:12.660Z,49.50
2018-05-11T23:23:15.139Z,49.60
2018-05-11T23:28:17.636Z,49.60
2018-05-11T23:33:20.137Z,49.50
2018-05-11T23:38:22.640Z,49.60
2018-05-11T23:43:25.112Z,49.70
2018-05-11T23:48:27.604Z,49.90
2018-05-11T23:53:30.092Z,49.80
2018-05-11T23:58:32.625Z,49.70
